Time;durP1;ratioP1;P1;durP2;ratioP2;P2;SDS_P1;SDS_P2;PMS_P1;PMS_P2;Temp;Humidity;BMP_temperature;BMP_pressure;BME280_temperature;BME280_humidity;BME280_pressure;Samples;Min_cycle;Max_cycle;Signal;HPM_P1;HPM_P2
2023/04/30 00:00:09;;;;;;;9.27;7.68;;;9.70;99.90;;;;;;4975623;28;20062;-48
2023/04/30 00:02:55;;;;;;;9.93;7.30;;;9.60;99.90;;;;;;4976759;28;20052;-47
2023/04/30 00:05:41;;;;;;;10.88;8.00;;;9.70;99.90;;;;;;4976107;28;20085;-47
2023/04/30 00:08:27;;;;;;;10.98;7.53;;;9.70;99.90;;;;;;4975717;28;20054;-46
2023/04/30 00:11:13;;;;;;;9.65;7.65;;;9.70;99.90;;;;;;4975716;28;20042;-46
2023/04/30 00:13:59;;;;;;;8.07;7.00;;;9.60;99.90;;;;;;4957588;28;20035;-46
2023/04/30 00:16:45;;;;;;;10.50;7.38;;;9.50;99.90;;;;;;4957628;28;20448;-45
2023/04/30 00:19:31;;;;;;;10.18;7.30;;;9.60;99.90;;;;;;4975996;28;20506;-51
2023/04/30 00:22:17;;;;;;;12.02;7.53;;;9.50;99.90;;;;;;4975620;28;20499;-50
2023/04/30 00:25:03;;;;;;;9.77;7.70;;;9.60;99.90;;;;;;4975367;28;20407;-48
2023/04/30 00:27:49;;;;;;;8.35;7.00;;;9.40;99.90;;;;;;4976158;28;20038;-48
2023/04/30 00:30:35;;;;;;;10.50;7.00;;;9.50;99.90;;;;;;4974943;28;20037;-52
2023/04/30 00:33:21;;;;;;;11.77;7.40;;;9.40;99.90;;;;;;4976391;28;20038;-49
2023/04/30 00:36:07;;;;;;;11.98;7.90;;;9.40;99.90;;;;;;4960774;28;20069;-50
2023/04/30 00:38:52;;;;;;;11.00;7.55;;;9.40;99.90;;;;;;4975628;28;20578;-46
2023/04/30 00:41:39;;;;;;;10.60;7.50;;;9.30;99.90;;;;;;4975627;28;20038;-45
2023/04/30 00:44:25;;;;;;;12.68;7.47;;;9.30;99.90;;;;;;4975371;28;20571;-45
2023/04/30 00:47:11;;;;;;;9.82;7.60;;;9.20;99.90;;;;;;4975747;28;20038;-45
2023/04/30 00:49:57;;;;;;;9.52;7.13;;;9.20;99.90;;;;;;4975812;28;20059;-46
2023/04/30 00:52:44;;;;;;;10.60;7.50;;;9.30;99.90;;;;;;4975880;28;20066;-48
2023/04/30 00:55:30;;;;;;;10.52;8.07;;;9.20;99.90;;;;;;4974210;28;20114;-45
2023/04/30 00:58:16;;;;;;;10.48;7.85;;;9.10;99.90;;;;;;4973405;28;20507;-48
2023/04/30 01:01:03;;;;;;;13.25;8.30;;;9.10;99.90;;;;;;4974743;28;20038;-47
2023/04/30 01:03:49;;;;;;;10.05;8.23;;;9.10;99.90;;;;;;4975062;28;20172;-48
2023/04/30 01:06:35;;;;;;;10.25;7.65;;;8.90;99.90;;;;;;4974866;28;20035;-48
2023/04/30 01:09:22;;;;;;;13.07;7.72;;;8.90;99.90;;;;;;4974980;28;20093;-46
2023/04/30 01:12:17;;;;;;;9.65;7.55;;;9.00;99.90;;;;;;4974710;28;20532;-49
2023/04/30 01:15:23;;;;;;;12.18;7.53;;;8.90;99.90;;;;;;4955188;29;20532;-47
2023/04/30 01:18:30;;;;;;;;;;;8.90;99.90;;;;;;4969935;28;20031;-49
2023/04/30 01:21:17;;;;;;;;;;;8.70;99.90;;;;;;4976795;28;20331;-50
2023/04/30 01:24:28;;;;;;;13.13;8.10;;;8.70;99.90;;;;;;4957189;28;19914;-46
2023/04/30 01:27:29;;;;;;;10.02;6.93;;;8.70;99.90;;;;;;4959540;28;20575;-48
2023/04/30 01:30:17;;;;;;;10.45;7.30;;;8.60;99.90;;;;;;4974989;28;20077;-48
2023/04/30 01:33:03;;;;;;;15.07;7.85;;;8.50;99.90;;;;;;4941988;28;20074;-46
2023/04/30 01:36:12;;;;;;;10.60;7.93;;;8.50;99.90;;;;;;4958193;28;20031;-46
2023/04/30 01:39:30;;;;;;;11.32;7.75;;;8.40;99.90;;;;;;4973904;28;20027;-46
2023/04/30 01:42:32;;;;;;;11.52;7.68;;;8.50;99.90;;;;;;4973542;28;20074;-45
2023/04/30 01:45:56;;;;;;;9.60;7.60;;;8.50;99.90;;;;;;4973802;28;20057;-44
2023/04/30 01:48:57;;;;;;;9.57;7.70;;;8.40;99.90;;;;;;4973970;28;20027;-47
2023/04/30 01:51:47;;;;;;;13.80;8.10;;;8.50;99.90;;;;;;4974610;28;20027;-47
2023/04/30 01:54:48;;;;;;;10.65;7.72;;;8.40;99.90;;;;;;4973703;28;20030;-48
2023/04/30 01:57:39;;;;;;;11.65;7.57;;;8.40;99.90;;;;;;4962666;28;20034;-45
2023/04/30 02:00:26;;;;;;;11.55;9.00;;;8.30;99.90;;;;;;4975745;28;20423;-47
2023/04/30 02:03:12;;;;;;;13.95;8.23;;;8.20;99.90;;;;;;4973493;28;20411;-45
2023/04/30 02:05:58;;;;;;;11.32;8.63;;;8.10;99.90;;;;;;4973676;28;20034;-46
2023/04/30 02:08:44;;;;;;;15.40;9.13;;;8.00;99.90;;;;;;4974047;28;20551;-46
2023/04/30 02:11:30;;;;;;;9.80;7.72;;;7.90;99.90;;;;;;4975033;28;20131;-45
2023/04/30 02:14:16;;;;;;;12.43;7.95;;;8.00;99.90;;;;;;4954673;29;20078;-44
2023/04/30 02:17:03;;;;;;;12.38;8.18;;;8.10;99.90;;;;;;4956840;28;20102;-46
2023/04/30 02:19:49;;;;;;;13.77;7.93;;;8.10;99.90;;;;;;4972917;28;20034;-47
2023/04/30 02:22:36;;;;;;;10.00;8.13;;;8.10;99.90;;;;;;4973405;28;20074;-47
2023/04/30 02:25:29;;;;;;;11.77;7.72;;;8.10;99.90;;;;;;5089122;27;20382;-45
2023/04/30 02:28:15;;;;;;;10.55;8.32;;;7.90;99.90;;;;;;5088683;28;20040;-47
2023/04/30 02:31:00;;;;;;;12.05;7.78;;;7.90;99.90;;;;;;5069360;28;20081;-48
2023/04/30 02:33:46;;;;;;;14.73;8.02;;;7.90;99.90;;;;;;5052704;28;20041;-49
2023/04/30 02:36:35;;;;;;;14.13;8.70;;;7.90;99.90;;;;;;5048975;28;20025;-49
2023/04/30 02:39:21;;;;;;;16.83;7.85;;;7.80;99.90;;;;;;5051552;28;20028;-45
2023/04/30 02:42:07;;;;;;;15.52;8.60;;;7.80;99.90;;;;;;5069335;28;20036;-47
2023/04/30 02:44:53;;;;;;;14.35;9.05;;;7.80;99.90;;;;;;5088738;28;20028;-48
2023/04/30 02:47:39;;;;;;;12.10;8.95;;;7.70;99.90;;;;;;5082803;28;20021;-46
2023/04/30 02:50:25;;;;;;;9.95;7.93;;;7.70;99.90;;;;;;5066826;28;20025;-47
2023/04/30 02:53:11;;;;;;;12.30;9.05;;;7.70;99.90;;;;;;5076740;28;20058;-45
2023/04/30 02:55:58;;;;;;;15.50;9.10;;;7.60;99.90;;;;;;5084740;28;20029;-46
2023/04/30 02:58:43;;;;;;;13.48;9.10;;;7.40;99.90;;;;;;5068143;28;20017;-45
2023/04/30 03:01:29;;;;;;;16.15;9.77;;;7.30;99.90;;;;;;5074826;28;20043;-46
2023/04/30 03:04:15;;;;;;;16.52;8.95;;;7.20;99.90;;;;;;5089071;28;20025;-47
2023/04/30 03:07:02;;;;;;;12.05;9.13;;;7.20;99.90;;;;;;5086801;28;20037;-45
2023/04/30 03:09:48;;;;;;;10.77;8.73;;;7.10;99.90;;;;;;5087556;28;20016;-45
2023/04/30 03:12:34;;;;;;;14.32;8.75;;;7.20;99.90;;;;;;5072046;28;20126;-45
2023/04/30 03:15:20;;;;;;;10.98;8.20;;;7.20;99.90;;;;;;5067753;28;20025;-45
2023/04/30 03:18:06;;;;;;;13.90;9.13;;;7.30;99.90;;;;;;5087140;28;20107;-46
2023/04/30 03:20:52;;;;;;;14.73;9.00;;;7.30;99.90;;;;;;5071930;28;20044;-46
2023/04/30 03:23:37;;;;;;;15.13;9.13;;;7.30;99.90;;;;;;5067602;28;20040;-48
2023/04/30 03:26:23;;;;;;;11.13;8.13;;;7.30;99.90;;;;;;5086311;28;20036;-47
2023/04/30 03:29:09;;;;;;;16.23;8.95;;;7.30;99.90;;;;;;5087759;28;20100;-45
2023/04/30 03:31:55;;;;;;;10.73;7.38;;;7.20;99.90;;;;;;5067758;28;20025;-46
2023/04/30 03:34:41;;;;;;;11.20;7.65;;;7.30;99.90;;;;;;5069249;28;20035;-46
2023/04/30 03:37:27;;;;;;;13.25;8.70;;;7.30;99.90;;;;;;5074036;28;20029;-45
2023/04/30 03:40:13;;;;;;;13.63;9.10;;;7.30;99.90;;;;;;5066022;28;20032;-45
2023/04/30 03:42:59;;;;;;;14.93;9.25;;;7.20;99.90;;;;;;5054890;28;20061;-46
2023/04/30 03:45:45;;;;;;;13.90;9.35;;;7.20;99.90;;;;;;5074848;28;20146;-49
2023/04/30 03:48:31;;;;;;;14.82;8.40;;;7.10;99.90;;;;;;5072820;28;20051;-46
2023/04/30 03:51:19;;;;;;;12.27;8.77;;;7.20;99.90;;;;;;5068984;28;20021;-46
2023/04/30 03:54:05;;;;;;;12.55;8.15;;;7.10;99.90;;;;;;5054629;28;20400;-46
2023/04/30 03:56:51;;;;;;;15.52;8.98;;;7.10;99.90;;;;;;5063809;28;20033;-49
2023/04/30 03:59:37;;;;;;;13.60;8.63;;;7.20;99.90;;;;;;5086304;28;20032;-44
2023/04/30 04:02:24;;;;;;;8.57;7.65;;;7.10;99.90;;;;;;5059472;28;20090;-51
2023/04/30 04:05:10;;;;;;;11.18;8.13;;;6.90;99.90;;;;;;5053683;28;20408;-45
2023/04/30 04:07:56;;;;;;;13.10;8.13;;;6.90;99.90;;;;;;5071182;28;20033;-45
2023/04/30 04:10:41;;;;;;;12.55;8.27;;;6.90;99.90;;;;;;5073551;28;20500;-46
2023/04/30 04:13:27;;;;;;;13.38;8.48;;;6.90;99.90;;;;;;5073295;28;20046;-48
2023/04/30 04:16:13;;;;;;;12.48;8.00;;;7.00;99.90;;;;;;5072990;28;20044;-44
2023/04/30 04:18:59;;;;;;;16.50;8.20;;;6.90;99.90;;;;;;5073440;28;20028;-48
2023/04/30 04:21:45;;;;;;;10.75;7.95;;;7.00;99.90;;;;;;5066028;28;20032;-48
2023/04/30 04:24:32;;;;;;;13.95;7.72;;;7.00;99.90;;;;;;5054254;28;20044;-47
2023/04/30 04:27:19;;;;;;;12.18;7.78;;;7.00;99.90;;;;;;5073708;28;20505;-47
2023/04/30 04:30:05;;;;;;;15.55;7.93;;;7.10;99.90;;;;;;5067368;28;20025;-46
2023/04/30 04:32:52;;;;;;;12.38;8.02;;;7.10;99.90;;;;;;5052236;28;20025;-48
2023/04/30 04:35:38;;;;;;;9.85;7.35;;;7.00;99.90;;;;;;5062786;28;20566;-47
2023/04/30 04:38:25;;;;;;;10.82;7.38;;;7.00;99.90;;;;;;5067101;28;20033;-49
2023/04/30 04:41:10;;;;;;;13.57;7.72;;;7.00;99.90;;;;;;5058628;28;20040;-48
2023/04/30 04:43:57;;;;;;;14.73;7.35;;;6.90;99.90;;;;;;5073035;28;20486;-47
2023/04/30 04:46:43;;;;;;;13.30;8.13;;;6.80;99.90;;;;;;5057316;28;20020;-47
2023/04/30 04:49:29;;;;;;;15.55;7.82;;;6.70;99.90;;;;;;5071929;28;20103;-45
2023/04/30 04:52:15;;;;;;;12.40;8.32;;;6.60;99.90;;;;;;5072965;28;20081;-45
2023/04/30 04:55:01;;;;;;;11.05;7.85;;;6.70;99.90;;;;;;5058027;28;20086;-46
2023/04/30 04:57:47;;;;;;;16.90;7.78;;;6.70;99.90;;;;;;5052510;28;20068;-44
2023/04/30 05:00:33;;;;;;;14.52;7.18;;;6.60;99.90;;;;;;5070391;28;20103;-46
2023/04/30 05:03:19;;;;;;;13.73;6.60;;;6.70;99.90;;;;;;5072742;28;20056;-44
2023/04/30 05:06:05;;;;;;;15.30;7.47;;;6.80;99.90;;;;;;5072295;28;20029;-45
2023/04/30 05:08:51;;;;;;;12.13;7.13;;;6.70;99.90;;;;;;5072203;28;20035;-47
2023/04/30 05:11:37;;;;;;;14.07;7.50;;;6.70;99.90;;;;;;5071192;28;20037;-45
2023/04/30 05:14:23;;;;;;;13.88;6.88;;;6.90;99.90;;;;;;5052483;28;20035;-49
2023/04/30 05:17:09;;;;;;;9.23;6.18;;;6.90;99.90;;;;;;5057037;28;20025;-45
2023/04/30 05:19:55;;;;;;;16.20;6.20;;;7.00;99.90;;;;;;5072565;28;20037;-44
2023/04/30 05:22:41;;;;;;;13.43;6.15;;;7.10;99.90;;;;;;5062604;28;20025;-46
2023/04/30 05:25:28;;;;;;;12.80;6.85;;;7.20;99.90;;;;;;5052201;28;20067;-48
2023/04/30 05:28:14;;;;;;;14.63;7.03;;;7.20;99.90;;;;;;5062875;28;20036;-46
2023/04/30 05:31:00;;;;;;;13.65;6.32;;;7.30;99.90;;;;;;5067434;28;20036;-45
2023/04/30 05:33:46;;;;;;;10.95;6.55;;;7.30;99.90;;;;;;5052125;28;20486;-47
2023/04/30 05:36:32;;;;;;;11.93;5.63;;;7.40;99.90;;;;;;5058777;28;20037;-44
2023/04/30 05:39:18;;;;;;;12.48;5.53;;;7.50;99.90;;;;;;5043956;28;20095;-45
2023/04/30 05:42:04;;;;;;;11.38;6.18;;;7.40;99.90;;;;;;5052035;28;20028;-46
2023/04/30 05:44:50;;;;;;;13.07;6.20;;;7.40;99.90;;;;;;5051317;28;20055;-44
2023/04/30 05:47:36;;;;;;;9.70;5.53;;;7.30;99.90;;;;;;5053101;28;20025;-46
2023/04/30 05:50:22;;;;;;;11.45;6.03;;;7.20;99.90;;;;;;5052070;28;20037;-45
2023/04/30 05:53:08;;;;;;;13.15;5.90;;;7.30;99.90;;;;;;5051820;28;20036;-46
2023/04/30 05:55:54;;;;;;;11.93;5.20;;;7.40;99.90;;;;;;5054662;28;20031;-46
2023/04/30 05:58:41;;;;;;;11.68;5.70;;;7.40;99.90;;;;;;5070818;28;20082;-47
2023/04/30 06:01:28;;;;;;;14.27;6.18;;;7.60;99.90;;;;;;5063240;28;20040;-46
2023/04/30 06:04:14;;;;;;;13.75;5.90;;;7.60;99.90;;;;;;5060211;28;20029;-47
2023/04/30 06:07:00;;;;;;;14.98;5.85;;;7.70;99.90;;;;;;5072459;28;20090;-46
2023/04/30 06:09:46;;;;;;;13.38;5.63;;;7.60;99.90;;;;;;5083424;28;20104;-45
2023/04/30 06:12:32;;;;;;;13.32;5.82;;;7.70;99.90;;;;;;5071244;28;20036;-46
2023/04/30 06:15:18;;;;;;;12.05;6.43;;;7.70;99.90;;;;;;5055955;28;20063;-48
2023/04/30 06:18:03;;;;;;;18.38;6.05;;;7.60;99.90;;;;;;5050559;28;20068;-46
2023/04/30 06:20:49;;;;;;;12.35;6.10;;;7.70;99.90;;;;;;5067900;28;20029;-44
2023/04/30 06:23:36;;;;;;;18.38;6.32;;;7.90;99.90;;;;;;5050707;28;20115;-44
2023/04/30 06:26:22;;;;;;;11.68;6.10;;;7.90;99.90;;;;;;5059244;28;20443;-44
2023/04/30 06:29:08;;;;;;;13.88;6.05;;;8.00;99.90;;;;;;5081451;28;20021;-45
2023/04/30 06:31:54;;;;;;;15.05;6.72;;;8.00;99.90;;;;;;5072109;28;20039;-47
2023/04/30 06:34:40;;;;;;;19.00;6.95;;;8.00;99.90;;;;;;5083107;28;20032;-51
2023/04/30 06:37:26;;;;;;;12.05;5.95;;;8.10;99.90;;;;;;5089625;28;20031;-46
2023/04/30 06:40:12;;;;;;;12.45;6.05;;;8.00;99.90;;;;;;5076792;28;20028;-45
2023/04/30 06:42:58;;;;;;;17.02;6.55;;;8.00;99.90;;;;;;5072031;28;20028;-46
2023/04/30 06:45:44;;;;;;;10.15;5.70;;;8.10;99.90;;;;;;5085023;28;20104;-44
2023/04/30 06:48:30;;;;;;;10.35;5.68;;;8.20;99.90;;;;;;5070318;28;20075;-45
2023/04/30 06:51:16;;;;;;;13.63;6.30;;;8.10;99.90;;;;;;5064348;28;20028;-50
2023/04/30 06:54:02;;;;;;;20.80;7.10;;;7.90;99.90;;;;;;5077464;28;20047;-46
2023/04/30 06:56:48;;;;;;;11.90;6.28;;;8.00;99.90;;;;;;5090317;28;20162;-46
2023/04/30 06:59:34;;;;;;;17.27;6.43;;;8.10;99.90;;;;;;5082443;28;20039;-46
2023/04/30 07:02:21;;;;;;;20.70;6.72;;;8.20;99.90;;;;;;5071692;28;20040;-48
2023/04/30 07:05:08;;;;;;;13.07;6.20;;;8.20;99.90;;;;;;5081246;28;20515;-46
2023/04/30 07:07:53;;;;;;;13.85;6.47;;;8.30;99.90;;;;;;5090377;28;20031;-45
2023/04/30 07:10:39;;;;;;;11.07;5.85;;;8.40;99.90;;;;;;5075205;28;20631;-46
2023/04/30 07:13:25;;;;;;;12.27;6.28;;;8.20;99.90;;;;;;5095661;28;20119;-45
2023/04/30 07:16:11;;;;;;;12.65;6.63;;;8.20;99.90;;;;;;5085769;28;20400;-46
2023/04/30 07:18:58;;;;;;;18.52;7.50;;;8.30;99.90;;;;;;5094324;28;20024;-45
2023/04/30 07:21:44;;;;;;;14.00;6.22;;;8.40;99.90;;;;;;5067454;28;20028;-48
2023/04/30 07:24:30;;;;;;;13.43;6.15;;;8.40;99.90;;;;;;5077202;28;20028;-50
2023/04/30 07:27:16;;;;;;;13.50;6.07;;;8.40;99.90;;;;;;5088403;28;20028;-45
2023/04/30 07:30:03;;;;;;;11.82;5.82;;;8.60;99.90;;;;;;5092350;28;20317;-47
2023/04/30 07:32:49;;;;;;;14.23;5.90;;;8.90;99.90;;;;;;5093956;28;20024;-47
2023/04/30 07:35:35;;;;;;;14.30;7.13;;;8.80;99.90;;;;;;5088697;28;20043;-47
2023/04/30 07:38:22;;;;;;;12.95;6.05;;;8.80;99.90;;;;;;5084996;28;20028;-52
2023/04/30 07:41:09;;;;;;;10.40;6.55;;;8.50;99.90;;;;;;5077660;28;20020;-55
2023/04/30 07:43:55;;;;;;;10.60;6.20;;;8.60;99.90;;;;;;5093783;28;20069;-50
2023/04/30 07:46:41;;;;;;;15.57;7.40;;;8.60;99.90;;;;;;5094262;28;20067;-53
2023/04/30 07:49:27;;;;;;;10.82;6.38;;;8.80;99.90;;;;;;5093022;28;20056;-51
2023/04/30 07:52:13;;;;;;;13.63;6.18;;;8.90;99.90;;;;;;5092559;28;20496;-52
2023/04/30 07:54:59;;;;;;;18.58;7.28;;;8.90;99.90;;;;;;5089123;28;20043;-52
2023/04/30 07:57:45;;;;;;;14.95;7.32;;;9.00;99.90;;;;;;5062142;28;20024;-47
2023/04/30 08:00:31;;;;;;;12.07;5.93;;;9.10;99.90;;;;;;5091285;28;20717;-48
2023/04/30 08:03:18;;;;;;;11.07;4.82;;;9.20;99.90;;;;;;5092714;28;20497;-48
2023/04/30 08:06:05;;;;;;;11.82;5.35;;;9.30;99.60;;;;;;5066931;28;20017;-48
2023/04/30 08:08:51;;;;;;;10.27;5.53;;;9.40;99.70;;;;;;5077523;28;20304;-50
2023/04/30 08:11:37;;;;;;;14.82;6.82;;;9.70;99.20;;;;;;5067616;28;20017;-55
2023/04/30 08:14:24;;;;;;;15.30;5.72;;;10.00;98.50;;;;;;5076554;28;20508;-50
2023/04/30 08:17:10;;;;;;;10.00;4.45;;;9.80;97.50;;;;;;5062525;28;20040;-55
2023/04/30 08:19:56;;;;;;;14.82;5.40;;;9.80;97.30;;;;;;5079750;28;20563;-49
2023/04/30 08:22:44;;;;;;;9.40;5.57;;;9.50;98.10;;;;;;5073324;28;20492;-50
2023/04/30 08:25:30;;;;;;;10.60;6.00;;;9.70;98.20;;;;;;5053991;28;20441;-52
2023/04/30 08:28:16;;;;;;;12.15;5.65;;;9.70;98.50;;;;;;5059482;28;20052;-48
2023/04/30 08:31:02;;;;;;;10.63;4.60;;;9.70;98.30;;;;;;5093130;28;20035;-50
2023/04/30 08:33:48;;;;;;;9.43;5.78;;;9.90;96.30;;;;;;5087389;28;20032;-56
2023/04/30 08:36:34;;;;;;;10.65;5.63;;;9.90;96.90;;;;;;5077927;28;20029;-54
2023/04/30 08:39:20;;;;;;;10.30;5.60;;;10.00;96.10;;;;;;5073952;28;20050;-54
2023/04/30 08:42:08;;;;;;;14.05;5.95;;;10.10;96.20;;;;;;5072794;28;20033;-50
2023/04/30 08:44:54;;;;;;;13.90;5.80;;;10.20;96.30;;;;;;5065718;28;20041;-50
2023/04/30 08:47:40;;;;;;;10.73;5.05;;;10.30;96.30;;;;;;5075623;28;20028;-50
2023/04/30 08:50:27;;;;;;;9.90;5.70;;;10.20;96.20;;;;;;5077666;28;20040;-50
2023/04/30 08:53:16;;;;;;;11.15;5.10;;;10.30;96.70;;;;;;5087583;28;20028;-54
2023/04/30 08:56:03;;;;;;;13.80;5.80;;;10.30;97.10;;;;;;5091187;28;20032;-50
2023/04/30 08:58:48;;;;;;;15.07;6.20;;;10.50;97.00;;;;;;5086505;28;20038;-54
2023/04/30 09:01:34;;;;;;;14.93;6.10;;;10.50;96.20;;;;;;5064300;28;20029;-52
2023/04/30 09:04:21;;;;;;;12.63;4.45;;;10.40;96.20;;;;;;5045902;28;20485;-51
2023/04/30 09:07:08;;;;;;;11.75;5.30;;;10.40;95.90;;;;;;5089402;28;20020;-52
2023/04/30 09:09:54;;;;;;;9.60;4.97;;;10.40;94.30;;;;;;5093233;28;20032;-53
2023/04/30 09:12:42;;;;;;;10.18;4.93;;;10.20;94.30;;;;;;5053606;28;20108;-47
2023/04/30 09:15:29;;;;;;;8.98;4.97;;;10.20;95.20;;;;;;5072388;28;20032;-51
2023/04/30 09:18:19;;;;;;;9.80;5.45;;;10.50;95.20;;;;;;5067520;28;20033;-55
2023/04/30 09:21:07;;;;;;;9.88;5.03;;;10.70;94.80;;;;;;5067714;28;20021;-55
2023/04/30 09:23:55;;;;;;;13.68;5.32;;;10.90;94.60;;;;;;5090239;28;20500;-51
2023/04/30 09:26:42;;;;;;;11.60;5.43;;;10.80;94.80;;;;;;5092870;28;20036;-54
2023/04/30 09:29:37;;;;;;;10.82;5.50;;;10.90;94.90;;;;;;5078329;28;20117;-54
2023/04/30 09:32:23;;;;;;;7.82;5.25;;;11.00;94.30;;;;;;5072662;28;20033;-51
2023/04/30 09:35:31;;;;;;;12.18;6.03;;;11.00;94.80;;;;;;5087367;28;20047;-50
2023/04/30 09:38:30;;;;;;;11.98;6.15;;;10.90;95.10;;;;;;5071319;28;20035;-49
2023/04/30 09:41:27;;;;;;;10.05;6.25;;;10.90;95.20;;;;;;5093052;28;20016;-51
2023/04/30 09:44:30;;;;;;;11.57;6.05;;;10.90;95.40;;;;;;5084842;28;20393;-51
2023/04/30 09:47:18;;;;;;;12.00;6.07;;;10.90;95.40;;;;;;5078330;28;20119;-51
2023/04/30 09:50:04;;;;;;;10.38;6.13;;;10.90;94.20;;;;;;5081588;28;20028;-52
2023/04/30 09:53:03;;;;;;;11.18;5.93;;;11.00;94.70;;;;;;5070879;28;20033;-53
2023/04/30 09:55:50;;;;;;;12.00;5.90;;;11.20;94.30;;;;;;5071224;28;20028;-46
2023/04/30 09:58:37;;;;;;;11.85;5.32;;;11.50;93.80;;;;;;5086790;28;20043;-52
2023/04/30 10:01:28;;;;;;;12.80;5.63;;;11.50;93.50;;;;;;5090136;28;20028;-50
2023/04/30 10:04:14;;;;;;;5.90;4.43;;;11.50;93.40;;;;;;5050246;28;20033;-49
2023/04/30 10:07:04;;;;;;;7.28;4.60;;;11.70;91.60;;;;;;5054953;28;20071;-47
2023/04/30 10:09:57;;;;;;;9.65;5.10;;;11.70;91.00;;;;;;5092165;28;20023;-45
2023/04/30 10:12:53;;;;;;;8.77;5.18;;;11.90;91.90;;;;;;5077264;28;20020;-47
2023/04/30 10:15:47;;;;;;;11.88;6.18;;;11.90;90.70;;;;;;5087603;28;20047;-45
2023/04/30 10:18:36;;;;;;;11.90;5.45;;;11.50;91.70;;;;;;5076152;28;20028;-45
2023/04/30 10:21:23;;;;;;;11.98;5.00;;;11.70;91.90;;;;;;5072894;28;20036;-45
2023/04/30 10:24:11;;;;;;;8.70;5.40;;;11.80;91.80;;;;;;5085440;28;20068;-47
2023/04/30 10:26:57;;;;;;;10.85;4.60;;;11.90;91.00;;;;;;5091833;28;20020;-49
2023/04/30 10:29:44;;;;;;;8.77;5.03;;;11.60;89.50;;;;;;5090812;28;20027;-45
2023/04/30 10:32:40;;;;;;;6.68;4.68;;;11.70;87.50;;;;;;5090940;28;20130;-47
2023/04/30 10:35:32;;;;;;;8.68;5.05;;;11.60;86.00;;;;;;5075982;28;20028;-47
2023/04/30 10:38:23;;;;;;;9.57;4.95;;;11.50;89.70;;;;;;5063281;28;20040;-48
2023/04/30 10:41:10;;;;;;;10.10;5.10;;;11.60;90.50;;;;;;5073453;28;20040;-46
2023/04/30 10:44:00;;;;;;;7.40;4.68;;;11.80;90.00;;;;;;5081362;28;20032;-45
2023/04/30 10:46:46;;;;;;;8.00;4.60;;;12.00;88.80;;;;;;5073213;28;20024;-47
2023/04/30 10:49:32;;;;;;;8.73;4.28;;;11.90;84.20;;;;;;5094646;28;20032;-46
2023/04/30 10:52:29;;;;;;;8.65;4.35;;;11.80;86.00;;;;;;5082560;28;20040;-46
2023/04/30 10:55:16;;;;;;;11.10;5.07;;;12.10;85.50;;;;;;5093535;28;20397;-49
2023/04/30 10:58:40;;;;;;;9.65;5.25;;;12.10;87.10;;;;;;5093137;28;20100;-48
2023/04/30 11:01:27;;;;;;;7.03;4.20;;;12.30;87.40;;;;;;5054242;28;20060;-48
2023/04/30 11:04:13;;;;;;;10.07;5.43;;;12.50;86.70;;;;;;5062031;28;20021;-47
2023/04/30 11:07:08;;;;;;;9.73;5.32;;;12.70;89.50;;;;;;5075470;28;20029;-47
2023/04/30 11:09:56;;;;;;;;;;;12.60;86.30;;;;;;5079127;28;20493;-49
2023/04/30 11:12:48;;;;;;;8.77;4.60;;;12.70;83.60;;;;;;5092652;28;19916;-47
2023/04/30 11:15:40;;;;;;;9.50;5.40;;;12.70;82.50;;;;;;5091444;28;20024;-49
2023/04/30 11:18:26;;;;;;;9.95;4.93;;;12.50;84.80;;;;;;5079156;28;20033;-52
2023/04/30 11:21:13;;;;;;;13.60;5.35;;;12.70;85.00;;;;;;5080010;28;20059;-48
2023/04/30 11:24:05;;;;;;;9.73;5.53;;;13.00;85.20;;;;;;5087971;28;20562;-48
2023/04/30 11:27:04;;;;;;;9.00;5.25;;;13.10;84.20;;;;;;5079490;28;20025;-46
2023/04/30 11:29:51;;;;;;;14.07;5.65;;;13.00;85.10;;;;;;5074923;28;20111;-45
2023/04/30 11:32:38;;;;;;;10.93;5.47;;;12.80;87.20;;;;;;5075078;28;20024;-48
2023/04/30 11:35:24;;;;;;;9.77;4.90;;;12.80;86.90;;;;;;5073070;28;20500;-45
2023/04/30 11:38:16;;;;;;;9.02;5.68;;;12.60;85.10;;;;;;5073213;28;20111;-50
2023/04/30 11:41:03;;;;;;;11.90;5.43;;;12.60;85.10;;;;;;5074963;28;20089;-46
2023/04/30 11:43:49;;;;;;;10.05;6.00;;;12.50;85.70;;;;;;5078360;28;20047;-47
2023/04/30 11:46:35;;;;;;;10.15;5.70;;;12.60;86.00;;;;;;5094114;28;20024;-45
2023/04/30 11:49:21;;;;;;;8.13;5.47;;;12.60;85.60;;;;;;5092602;28;20033;-45
2023/04/30 11:52:08;;;;;;;9.45;6.22;;;12.70;84.90;;;;;;5094225;28;20483;-45
2023/04/30 11:54:56;;;;;;;12.32;6.13;;;12.60;84.80;;;;;;5080959;28;20037;-49
2023/04/30 11:57:43;;;;;;;11.95;5.70;;;12.70;85.90;;;;;;5073704;28;20025;-48
2023/04/30 12:00:30;;;;;;;12.43;6.18;;;12.80;86.80;;;;;;5090690;28;20032;-44
2023/04/30 12:03:16;;;;;;;11.60;5.82;;;13.10;87.30;;;;;;5094640;28;20032;-45
2023/04/30 12:06:02;;;;;;;12.07;5.68;;;13.10;86.50;;;;;;5052702;28;20041;-46
2023/04/30 12:08:49;;;;;;;9.70;5.80;;;13.10;86.70;;;;;;5058856;28;20120;-44
2023/04/30 12:11:35;;;;;;;9.80;5.53;;;13.20;87.20;;;;;;5079205;28;20032;-47
2023/04/30 12:14:24;;;;;;;10.45;5.50;;;13.50;86.50;;;;;;5077226;28;20029;-46
2023/04/30 12:17:10;;;;;;;10.55;5.53;;;13.60;84.60;;;;;;5079638;28;20028;-46
2023/04/30 12:19:56;;;;;;;8.00;5.70;;;13.70;84.50;;;;;;5073250;28;20039;-47
2023/04/30 12:22:43;;;;;;;7.93;5.95;;;13.70;83.70;;;;;;5071183;28;20134;-46
2023/04/30 12:25:29;;;;;;;11.48;5.50;;;13.70;84.60;;;;;;5071884;28;20033;-45
2023/04/30 12:28:15;;;;;;;9.60;5.57;;;13.80;83.40;;;;;;5075358;28;20017;-47
2023/04/30 12:31:03;;;;;;;10.05;5.93;;;13.60;81.50;;;;;;5093340;28;20111;-46
2023/04/30 12:33:55;;;;;;;8.55;5.35;;;13.70;81.50;;;;;;5088404;28;20078;-49
2023/04/30 12:36:41;;;;;;;13.00;5.65;;;13.60;81.90;;;;;;5071732;28;20706;-46
2023/04/30 12:39:32;;;;;;;10.68;5.35;;;13.80;81.40;;;;;;5071951;28;20643;-47
2023/04/30 12:42:19;;;;;;;9.15;5.68;;;13.70;81.30;;;;;;5069535;28;20055;-52
2023/04/30 12:45:06;;;;;;;9.00;4.90;;;14.00;80.90;;;;;;5072067;28;20100;-46
2023/04/30 12:47:52;;;;;;;6.72;5.10;;;14.10;80.70;;;;;;5060896;28;20086;-46
2023/04/30 12:50:38;;;;;;;9.23;5.55;;;14.10;80.40;;;;;;5066071;28;20109;-46
2023/04/30 12:53:24;;;;;;;7.03;4.60;;;14.30;78.60;;;;;;5069605;28;20107;-49
2023/04/30 12:56:14;;;;;;;7.65;4.45;;;14.30;78.80;;;;;;5073129;28;20397;-49
2023/04/30 12:59:00;;;;;;;7.25;4.60;;;14.30;77.50;;;;;;5080230;28;20023;-46
2023/04/30 13:01:46;;;;;;;8.68;4.57;;;14.20;78.20;;;;;;5075921;28;20028;-47
2023/04/30 13:04:32;;;;;;;7.55;4.55;;;14.40;77.70;;;;;;5092051;28;20119;-47
2023/04/30 13:07:19;;;;;;;9.32;4.40;;;14.40;77.40;;;;;;5085715;28;20036;-45
2023/04/30 13:10:06;;;;;;;8.05;4.63;;;14.60;76.70;;;;;;5075243;28;20107;-45
2023/04/30 13:12:52;;;;;;;10.63;4.47;;;14.70;75.40;;;;;;5090890;28;20032;-46
2023/04/30 13:15:39;;;;;;;6.82;4.55;;;14.90;73.80;;;;;;5092627;28;20024;-46
2023/04/30 13:18:25;;;;;;;6.40;4.07;;;15.10;72.00;;;;;;5092325;28;20407;-46
2023/04/30 13:21:11;;;;;;;6.78;4.03;;;15.20;72.40;;;;;;5079637;28;20058;-49
2023/04/30 13:23:57;;;;;;;7.97;4.50;;;15.50;73.60;;;;;;5091010;28;20075;-46
2023/04/30 13:26:43;;;;;;;6.47;4.28;;;15.70;70.80;;;;;;5091732;28;20024;-48
2023/04/30 13:29:29;;;;;;;8.90;4.25;;;15.50;69.70;;;;;;5091516;28;20028;-48
2023/04/30 13:32:15;;;;;;;14.20;5.00;;;15.40;70.60;;;;;;5089828;28;20028;-49
2023/04/30 13:35:02;;;;;;;11.15;4.88;;;15.40;71.10;;;;;;5058361;28;20056;-48
2023/04/30 13:37:48;;;;;;;10.57;4.30;;;15.40;74.40;;;;;;5077918;28;20173;-48
2023/04/30 13:40:34;;;;;;;11.48;4.35;;;15.20;72.70;;;;;;5090060;28;20392;-46
2023/04/30 13:43:20;;;;;;;6.53;4.15;;;15.50;71.80;;;;;;5079973;28;20033;-46
2023/04/30 13:46:06;;;;;;;8.10;4.25;;;15.50;70.00;;;;;;5071947;28;20087;-47
2023/04/30 13:48:52;;;;;;;9.27;4.13;;;15.60;70.80;;;;;;5085007;28;20395;-47
2023/04/30 13:51:38;;;;;;;9.40;4.57;;;15.70;70.90;;;;;;5091148;28;20097;-46
2023/04/30 13:54:24;;;;;;;7.18;3.83;;;16.00;71.70;;;;;;5039301;28;20033;-46
2023/04/30 13:57:10;;;;;;;6.80;3.92;;;16.30;71.10;;;;;;5075525;28;20131;-47
2023/04/30 13:59:56;;;;;;;6.90;4.15;;;16.40;70.40;;;;;;5089837;28;20050;-49
2023/04/30 14:02:42;;;;;;;9.52;4.60;;;16.60;68.00;;;;;;5085056;28;20406;-46
2023/04/30 14:05:28;;;;;;;6.32;4.13;;;16.70;68.00;;;;;;5086004;28;20036;-48
2023/04/30 14:08:14;;;;;;;7.43;4.35;;;16.80;67.50;;;;;;5075298;28;20070;-48
2023/04/30 14:11:00;;;;;;;9.07;3.75;;;16.30;68.00;;;;;;5091170;28;20024;-45
2023/04/30 14:13:46;;;;;;;7.95;4.50;;;16.50;67.00;;;;;;5090904;28;20122;-46
2023/04/30 14:16:32;;;;;;;9.20;4.32;;;16.80;67.10;;;;;;5090715;28;20035;-48
2023/04/30 14:19:19;;;;;;;5.25;3.90;;;17.30;68.10;;;;;;5091280;28;20040;-45
2023/04/30 14:22:05;;;;;;;9.27;4.50;;;17.40;68.00;;;;;;5091256;28;20021;-50
2023/04/30 14:24:52;;;;;;;5.47;3.97;;;17.60;67.10;;;;;;5090765;28;20039;-49
2023/04/30 14:27:39;;;;;;;9.10;4.85;;;17.10;67.00;;;;;;5091877;28;20020;-48
2023/04/30 14:30:25;;;;;;;5.60;3.97;;;17.10;67.90;;;;;;5090273;28;20051;-48